createdAt,value
2018-08-20T00:00:44.602Z,4.62
2018-08-20T00:03:13.184Z,4.60
2018-08-20T00:05:44.393Z,5.20
2018-08-20T00:08:19.637Z,4.72
2018-08-20T00:10:48.117Z,4.95
2018-08-20T00:13:16.512Z,4.80
2018-08-20T00:15:44.925Z,5.00
2018-08-20T00:18:17.770Z,4.58
2018-08-20T00:20:46.291Z,5.10
2018-08-20T00:23:14.770Z,4.65
2018-08-20T00:25:43.168Z,4.90
2018-08-20T00:28:11.582Z,4.50
2018-08-20T00:30:42.130Z,5.30
2018-08-20T00:33:10.732Z,5.22
2018-08-20T00:35:39.117Z,4.90
2018-08-20T00:38:07.539Z,5.22
2018-08-20T00:40:35.944Z,5.05
2018-08-20T00:43:04.458Z,5.70
2018-08-20T00:45:32.864Z,4.85
2018-08-20T00:48:01.284Z,4.85
2018-08-20T00:50:29.653Z,5.05
2018-08-20T00:52:57.807Z,5.67
2018-08-20T00:55:26.182Z,4.37
2018-08-20T00:57:54.773Z,5.12
2018-08-20T01:00:23.163Z,4.85
2018-08-20T01:02:51.568Z,5.30
2018-08-20T01:05:19.962Z,4.80
2018-08-20T01:07:48.388Z,5.00
2018-08-20T01:10:16.788Z,4.92
2018-08-20T01:12:45.193Z,5.28
2018-08-20T01:15:13.765Z,5.08
2018-08-20T01:17:41.839Z,5.10
2018-08-20T01:20:10.478Z,5.37
2018-08-20T01:22:38.941Z,5.65
2018-08-20T01:25:07.383Z,4.65
2018-08-20T01:27:35.832Z,5.55
2018-08-20T01:30:04.604Z,4.90
2018-08-20T01:32:33.219Z,5.17
2018-08-20T01:35:18.541Z,5.08
2018-08-20T01:37:47.392Z,5.15
2018-08-20T01:40:15.927Z,5.10
2018-08-20T01:42:44.314Z,5.15
2018-08-20T01:45:12.757Z,5.80
2018-08-20T01:47:41.145Z,5.20
2018-08-20T01:50:09.601Z,5.67
2018-08-20T01:52:38.008Z,5.20
2018-08-20T01:55:06.773Z,5.40
2018-08-20T01:57:35.171Z,5.25
2018-08-20T02:00:03.676Z,5.90
2018-08-20T02:02:32.061Z,5.42
2018-08-20T02:05:00.492Z,6.20
2018-08-20T02:07:28.928Z,5.62
2018-08-20T02:09:57.388Z,5.78
2018-08-20T02:12:25.799Z,5.17
2018-08-20T02:14:53.898Z,5.65
2018-08-20T02:17:22.328Z,5.75
2018-08-20T02:19:50.739Z,5.10
2018-08-20T02:22:19.310Z,5.47
2018-08-20T02:24:47.723Z,5.75
2018-08-20T02:27:16.132Z,5.45
2018-08-20T02:29:44.509Z,5.83
2018-08-20T02:32:12.956Z,5.95
2018-08-20T02:34:41.365Z,5.00
2018-08-20T02:37:09.517Z,6.33
2018-08-20T02:39:37.924Z,5.80
2018-08-20T02:42:06.399Z,5.53
2018-08-20T02:44:34.809Z,5.42
2018-08-20T02:47:03.280Z,5.47
2018-08-20T02:49:31.771Z,5.28
2018-08-20T02:52:00.196Z,5.72
2018-08-20T02:54:28.650Z,6.03
2018-08-20T02:56:57.117Z,5.78
2018-08-20T02:59:25.504Z,5.33
2018-08-20T03:01:53.985Z,5.92
2018-08-20T03:04:22.468Z,5.50
2018-08-20T03:06:51.020Z,5.30
2018-08-20T03:09:19.459Z,5.87
2018-08-20T03:11:47.851Z,6.40
2018-08-20T03:14:16.404Z,5.20
2018-08-20T03:16:44.783Z,6.15
2018-08-20T03:19:13.213Z,5.72
2018-08-20T03:21:41.646Z,6.00
2018-08-20T03:24:10.077Z,5.83
2018-08-20T03:26:38.473Z,6.05
2018-08-20T03:29:06.922Z,5.35
2018-08-20T03:31:35.305Z,5.87
2018-08-20T03:34:03.782Z,6.22
2018-08-20T03:36:32.175Z,5.72
2018-08-20T03:39:00.637Z,6.47
2018-08-20T03:41:29.092Z,5.95
2018-08-20T03:43:57.520Z,5.97
2018-08-20T03:46:25.969Z,6.12
2018-08-20T03:48:54.586Z,5.72
2018-08-20T03:51:22.986Z,6.35
2018-08-20T03:53:51.456Z,6.50
2018-08-20T03:56:19.834Z,6.55
2018-08-20T03:58:48.246Z,6.30
2018-08-20T04:01:16.625Z,6.08
2018-08-20T04:03:45.087Z,6.35
2018-08-20T04:06:13.467Z,5.62
2018-08-20T04:08:41.893Z,6.58
2018-08-20T04:11:10.269Z,6.30
2018-08-20T04:13:38.737Z,6.12
2018-08-20T04:16:07.167Z,5.80
2018-08-20T04:18:35.551Z,5.75
2018-08-20T04:21:04.009Z,6.12
2018-08-20T04:23:32.388Z,5.42
2018-08-20T04:26:00.853Z,6.05
2018-08-20T04:28:29.269Z,5.87
2018-08-20T04:30:57.669Z,6.20
2018-08-20T04:33:26.050Z,6.47
2018-08-20T04:35:54.490Z,5.70
2018-08-20T04:38:22.892Z,6.72
2018-08-20T04:40:51.294Z,5.78
2018-08-20T04:43:19.726Z,5.95
2018-08-20T04:45:48.183Z,6.55
2018-08-20T04:48:16.577Z,6.33
2018-08-20T04:50:45.046Z,6.15
2018-08-20T04:53:13.419Z,6.05
2018-08-20T04:55:41.975Z,5.97
2018-08-20T04:58:10.363Z,5.92
2018-08-20T05:00:38.765Z,6.40
2018-08-20T05:03:07.401Z,7.00
2018-08-20T05:05:35.790Z,5.87
2018-08-20T05:08:04.228Z,6.67
2018-08-20T05:10:32.654Z,6.12
2018-08-20T05:13:01.057Z,5.80
2018-08-20T05:15:29.447Z,5.30
2018-08-20T05:17:57.861Z,6.12
2018-08-20T05:20:26.236Z,6.30
2018-08-20T05:22:54.666Z,5.78
2018-08-20T05:25:23.066Z,6.80
2018-08-20T05:27:51.473Z,7.78
2018-08-20T05:30:19.850Z,5.80
2018-08-20T05:32:48.269Z,5.83
2018-08-20T05:35:16.686Z,6.10
2018-08-20T05:37:45.113Z,5.62
2018-08-20T05:40:13.517Z,5.75
2018-08-20T05:42:42.005Z,5.70
2018-08-20T05:45:11.704Z,5.85
2018-08-20T05:47:40.316Z,5.42
2018-08-20T05:50:09.081Z,5.25
2018-08-20T05:52:37.843Z,5.50
2018-08-20T05:55:06.286Z,6.22
2018-08-20T05:57:34.693Z,5.08
2018-08-20T06:00:03.208Z,5.40
2018-08-20T06:02:31.595Z,4.78
2018-08-20T06:04:59.995Z,5.90
2018-08-20T06:07:28.373Z,5.58
2018-08-20T06:09:56.785Z,4.97
2018-08-20T06:12:25.164Z,5.42
2018-08-20T06:14:53.577Z,5.30
2018-08-20T06:17:21.975Z,4.90
2018-08-20T06:19:50.407Z,4.95
2018-08-20T06:22:18.809Z,4.72
2018-08-20T06:24:47.345Z,5.03
2018-08-20T06:27:15.745Z,4.40
2018-08-20T06:29:44.154Z,4.45
2018-08-20T06:32:12.534Z,4.28
2018-08-20T06:34:40.933Z,3.92
2018-08-20T06:37:09.342Z,4.45
2018-08-20T06:39:37.753Z,3.98
2018-08-20T06:42:06.304Z,4.28
2018-08-20T06:44:34.700Z,3.80
2018-08-20T06:47:03.099Z,3.83
2018-08-20T06:49:31.528Z,3.37
2018-08-20T06:51:59.961Z,3.58
2018-08-20T06:54:28.471Z,3.40
2018-08-20T06:56:56.917Z,3.08
2018-08-20T06:59:25.317Z,3.27
2018-08-20T07:01:53.752Z,3.17
2018-08-20T07:04:22.157Z,3.52
2018-08-20T07:06:50.593Z,3.25
2018-08-20T07:09:18.977Z,2.85
2018-08-20T07:11:47.438Z,3.25
2018-08-20T07:14:15.862Z,3.12
2018-08-20T07:16:44.287Z,2.85
2018-08-20T07:19:12.667Z,3.40
2018-08-20T07:21:41.084Z,3.22
2018-08-20T07:24:09.509Z,2.90
2018-08-20T07:26:37.922Z,3.10
2018-08-20T07:29:06.481Z,2.70
2018-08-20T07:31:34.903Z,3.12
2018-08-20T07:34:03.309Z,2.62
2018-08-20T07:36:31.734Z,2.10
2018-08-20T07:39:00.181Z,2.35
2018-08-20T07:41:28.633Z,2.42
2018-08-20T07:43:57.070Z,2.62
2018-08-20T07:46:25.490Z,2.50
2018-08-20T07:48:53.931Z,2.00
2018-08-20T07:51:22.369Z,2.90
2018-08-20T07:53:50.808Z,2.45
2018-08-20T07:56:19.222Z,2.37
2018-08-20T07:58:47.676Z,2.62
2018-08-20T08:01:16.127Z,2.52
2018-08-20T08:03:44.557Z,2.80
2018-08-20T08:06:13.029Z,2.42
2018-08-20T08:08:41.464Z,2.58
2018-08-20T08:11:09.862Z,2.75
2018-08-20T08:13:38.291Z,2.12
2018-08-20T08:16:07.174Z,2.02
2018-08-20T08:18:35.628Z,2.10
2018-08-20T08:21:04.042Z,2.45
2018-08-20T08:23:32.485Z,2.25
2018-08-20T08:26:00.887Z,2.17
2018-08-20T08:28:29.324Z,2.20
2018-08-20T08:30:57.417Z,2.10
2018-08-20T08:33:25.825Z,2.02
2018-08-20T08:35:54.237Z,2.10
2018-08-20T08:38:22.733Z,2.20
2018-08-20T08:40:51.113Z,2.20
2018-08-20T08:43:19.604Z,2.10
2018-08-20T08:45:48.706Z,2.12
2018-08-20T08:48:16.889Z,2.12
2018-08-20T08:50:45.296Z,1.70
2018-08-20T08:53:13.772Z,2.35
2018-08-20T08:55:42.150Z,2.00
2018-08-20T08:58:10.558Z,2.30
2018-08-20T09:00:39.093Z,2.50
2018-08-20T09:03:07.483Z,2.02
2018-08-20T09:05:35.929Z,2.27
2018-08-20T09:08:04.355Z,1.70
2018-08-20T09:10:32.772Z,2.35
2018-08-20T09:13:01.194Z,2.05
2018-08-20T09:15:29.595Z,1.65
2018-08-20T09:17:58.001Z,2.33
2018-08-20T09:20:26.438Z,1.77
2018-08-20T09:22:54.855Z,2.20
2018-08-20T09:25:23.272Z,1.65
2018-08-20T09:27:51.680Z,1.77
2018-08-20T09:30:21.728Z,1.62
2018-08-20T09:32:50.114Z,2.00
2018-08-20T09:35:18.549Z,1.60
2018-08-20T09:37:46.964Z,2.05
2018-08-20T09:40:15.512Z,2.02
2018-08-20T09:42:44.266Z,2.30
2018-08-20T09:45:12.748Z,1.95
2018-08-20T09:47:41.941Z,1.75
2018-08-20T09:50:15.186Z,2.45
2018-08-20T09:52:44.001Z,2.30
2018-08-20T09:55:12.423Z,2.27
2018-08-20T09:57:41.081Z,2.30
2018-08-20T10:00:12.857Z,2.52
2018-08-20T10:02:41.250Z,2.17
2018-08-20T10:05:09.735Z,2.33
2018-08-20T10:07:38.143Z,2.17
2018-08-20T10:10:06.630Z,2.22
2018-08-20T10:12:35.134Z,2.60
2018-08-20T10:15:03.686Z,2.33
2018-08-20T10:17:32.090Z,2.12
2018-08-20T10:20:00.469Z,2.27
2018-08-20T10:22:28.978Z,2.12
2018-08-20T10:24:57.716Z,2.33
2018-08-20T10:27:26.133Z,2.85
2018-08-20T10:29:54.514Z,2.12
2018-08-20T10:32:22.926Z,2.77
2018-08-20T10:34:51.305Z,2.55
2018-08-20T10:37:19.716Z,2.30
2018-08-20T10:39:48.105Z,2.35
2018-08-20T10:42:16.546Z,2.45
2018-08-20T10:44:50.255Z,2.40
2018-08-20T10:47:19.065Z,2.47
2018-08-20T10:49:47.453Z,2.40
2018-08-20T10:52:15.885Z,2.55
2018-08-20T10:54:44.306Z,2.45
2018-08-20T10:57:12.725Z,2.58
2018-08-20T10:59:41.125Z,2.80
2018-08-20T11:02:10.276Z,2.35
2018-08-20T11:04:39.076Z,2.67
2018-08-20T11:07:07.674Z,2.33
2018-08-20T11:09:36.108Z,2.70
2018-08-20T11:12:04.552Z,2.40
2018-08-20T11:14:32.980Z,2.62
2018-08-20T11:17:01.374Z,2.37
2018-08-20T11:19:29.797Z,2.85
2018-08-20T11:21:58.212Z,3.08
2018-08-20T11:24:26.625Z,2.58
2018-08-20T11:26:55.041Z,3.37
2018-08-20T11:29:23.450Z,2.90
2018-08-20T11:31:51.832Z,2.83
2018-08-20T11:34:20.237Z,2.65
2018-08-20T11:36:48.611Z,2.80
2018-08-20T11:39:17.037Z,2.67
2018-08-20T11:41:45.409Z,3.02
2018-08-20T11:44:13.839Z,2.62
2018-08-20T11:46:42.241Z,3.00
2018-08-20T11:49:10.830Z,2.95
2018-08-20T11:51:39.173Z,2.72
2018-08-20T11:54:07.621Z,3.30
2018-08-20T11:56:35.696Z,2.42
2018-08-20T11:59:04.211Z,2.80
2018-08-20T12:01:32.668Z,2.75
2018-08-20T12:04:01.085Z,2.65
2018-08-20T12:06:29.509Z,3.20
2018-08-20T12:08:57.882Z,3.12
2018-08-20T12:11:26.297Z,2.55
2018-08-20T12:13:54.688Z,2.98
2018-08-20T12:16:23.101Z,2.50
2018-08-20T12:18:51.698Z,2.40
2018-08-20T12:21:20.129Z,2.40
2018-08-20T12:23:48.538Z,2.52
2018-08-20T12:26:16.946Z,2.52
2018-08-20T12:28:45.324Z,2.42
2018-08-20T12:31:13.734Z,2.52
2018-08-20T12:33:42.128Z,2.65
2018-08-20T12:36:10.509Z,2.62
2018-08-20T12:38:38.917Z,2.90
2018-08-20T12:41:07.316Z,2.67
2018-08-20T12:43:35.743Z,2.98
2018-08-20T12:46:04.153Z,2.60
2018-08-20T12:48:32.636Z,2.33
2018-08-20T12:51:01.001Z,2.90
2018-08-20T12:53:29.444Z,2.60
2018-08-20T12:55:57.821Z,3.40
2018-08-20T12:58:26.283Z,2.92
2018-08-20T13:00:54.700Z,2.75
2018-08-20T13:03:22.816Z,2.80
2018-08-20T13:05:51.228Z,2.50
2018-08-20T13:08:19.628Z,2.52
2018-08-20T13:10:48.038Z,2.50
2018-08-20T13:13:16.454Z,3.33
2018-08-20T13:15:44.932Z,2.58
2018-08-20T13:18:13.341Z,3.00
2018-08-20T13:20:41.425Z,2.90
2018-08-20T13:23:09.849Z,2.50
2018-08-20T13:25:38.241Z,2.47
2018-08-20T13:28:06.688Z,2.47
2018-08-20T13:30:35.108Z,3.05
2018-08-20T13:33:03.518Z,2.80
2018-08-20T13:35:31.900Z,2.98
2018-08-20T13:38:00.356Z,2.85
2018-08-20T13:40:28.764Z,3.20
2018-08-20T13:42:57.060Z,2.33
2018-08-20T13:45:25.445Z,2.75
2018-08-20T13:47:53.852Z,2.83
2018-08-20T13:50:22.259Z,2.87
2018-08-20T13:52:50.717Z,2.83
2018-08-20T13:55:19.085Z,2.75
2018-08-20T13:58:18.224Z,2.40
2018-08-20T14:00:46.718Z,2.87
2018-08-20T14:03:15.158Z,2.83
2018-08-20T14:05:43.597Z,3.12
2018-08-20T14:08:12.013Z,2.55
2018-08-20T14:10:40.394Z,2.85
2018-08-20T14:13:08.894Z,2.42
2018-08-20T14:15:37.323Z,2.90
2018-08-20T14:18:06.125Z,2.85
2018-08-20T14:20:34.516Z,2.80
2018-08-20T14:23:02.959Z,2.65
2018-08-20T14:25:31.333Z,2.80
2018-08-20T14:27:59.701Z,2.83
2018-08-20T14:30:28.148Z,3.00
2018-08-20T14:32:56.520Z,3.30
2018-08-20T14:35:24.948Z,2.80
2018-08-20T14:37:53.339Z,2.92
2018-08-20T14:40:21.760Z,3.05
2018-08-20T14:42:50.137Z,2.77
2018-08-20T14:45:18.570Z,2.95
2018-08-20T14:47:46.967Z,3.00
2018-08-20T14:50:17.149Z,3.15
2018-08-20T14:52:45.578Z,3.12
2018-08-20T14:55:14.089Z,2.75
2018-08-20T14:57:42.469Z,2.77
2018-08-20T15:00:12.853Z,2.90
2018-08-20T15:02:41.272Z,3.15
2018-08-20T15:05:10.029Z,3.00
2018-08-20T15:07:38.604Z,3.00
2018-08-20T15:10:08.006Z,2.75
2018-08-20T15:12:36.602Z,2.87
2018-08-20T15:15:06.014Z,2.47
2018-08-20T15:17:34.401Z,2.45
2018-08-20T15:20:02.493Z,2.77
2018-08-20T15:22:30.904Z,3.10
2018-08-20T15:24:59.316Z,2.75
2018-08-20T15:27:27.722Z,3.30
2018-08-20T15:29:56.188Z,2.70
2018-08-20T15:32:24.630Z,2.83
2018-08-20T15:34:53.021Z,2.90
2018-08-20T15:37:21.518Z,2.65
2018-08-20T15:39:49.899Z,2.37
2018-08-20T15:42:19.070Z,2.92
2018-08-20T15:44:47.448Z,2.42
2018-08-20T15:47:15.879Z,2.77
2018-08-20T15:49:44.250Z,3.15
2018-08-20T15:52:12.687Z,3.42
2018-08-20T15:54:41.084Z,3.40
2018-08-20T15:57:09.501Z,3.10
2018-08-20T15:59:37.620Z,2.60
2018-08-20T16:02:06.362Z,2.62
2018-08-20T16:04:34.775Z,2.90
2018-08-20T16:07:03.235Z,2.85
2018-08-20T16:09:31.699Z,2.70
2018-08-20T16:12:00.085Z,2.83
2018-08-20T16:14:28.510Z,2.92
2018-08-20T16:16:56.877Z,2.42
2018-08-20T16:19:25.290Z,2.60
2018-08-20T16:21:53.714Z,3.12
2018-08-20T16:24:22.136Z,2.80
2018-08-20T16:26:50.620Z,3.12
2018-08-20T16:29:19.042Z,3.27
2018-08-20T16:31:47.472Z,3.15
2018-08-20T16:34:15.896Z,2.70
2018-08-20T16:36:44.308Z,2.77
2018-08-20T16:39:13.194Z,3.25
2018-08-20T16:41:41.627Z,3.05
2018-08-20T16:44:10.905Z,3.20
2018-08-20T16:46:39.665Z,2.35
2018-08-20T16:49:09.681Z,2.87
2018-08-20T16:51:38.093Z,3.15
2018-08-20T16:54:06.861Z,2.85
2018-08-20T16:56:35.320Z,2.75
2018-08-20T16:59:03.865Z,3.12
2018-08-20T17:01:32.296Z,2.60
2018-08-20T17:04:00.708Z,3.58
2018-08-20T17:06:44.594Z,3.27
2018-08-20T17:09:13.031Z,2.55
2018-08-20T17:11:41.432Z,3.02
2018-08-20T17:14:09.836Z,2.75
2018-08-20T17:16:38.260Z,3.05
2018-08-20T17:19:06.653Z,2.70
2018-08-20T17:21:35.088Z,2.77
2018-08-20T17:24:03.567Z,2.85
2018-08-20T17:26:31.977Z,2.75
2018-08-20T17:29:07.719Z,2.62
2018-08-20T17:31:36.144Z,2.65
2018-08-20T17:34:05.629Z,2.62
2018-08-20T17:36:34.141Z,2.80
2018-08-20T17:39:02.951Z,3.00
2018-08-20T17:41:31.414Z,3.00
2018-08-20T17:43:59.811Z,2.85
2018-08-20T17:46:28.335Z,3.00
2018-08-20T17:48:56.745Z,2.58
2018-08-20T17:51:25.170Z,2.75
2018-08-20T17:53:55.905Z,2.85
2018-08-20T17:56:24.345Z,2.90
2018-08-20T17:59:24.899Z,2.77
2018-08-20T18:01:53.338Z,2.65
2018-08-20T18:04:21.789Z,2.77
2018-08-20T18:06:55.152Z,3.05
2018-08-20T18:09:23.716Z,2.70
2018-08-20T18:11:54.404Z,3.05
2018-08-20T18:14:24.097Z,4.60
2018-08-20T18:16:52.540Z,4.37
2018-08-20T18:19:20.971Z,4.40
2018-08-20T18:21:49.512Z,3.20
2018-08-20T18:24:19.362Z,2.83
2018-08-20T18:26:51.584Z,2.95
2018-08-20T18:29:20.028Z,2.87
2018-08-20T18:31:51.926Z,2.85
2018-08-20T18:34:20.499Z,2.95
2018-08-20T18:36:48.924Z,2.85
2018-08-20T18:39:17.401Z,2.85
2018-08-20T18:42:02.656Z,3.42
2018-08-20T18:44:31.112Z,3.00
2018-08-20T18:46:59.517Z,3.52
2018-08-20T18:49:27.955Z,3.40
2018-08-20T18:52:13.041Z,3.60
2018-08-20T18:54:43.682Z,2.60
2018-08-20T18:57:16.998Z,3.30
2018-08-20T18:59:45.509Z,3.27
2018-08-20T19:02:32.056Z,3.02
2018-08-20T19:05:01.172Z,2.50
2018-08-20T19:07:29.606Z,3.00
2018-08-20T19:09:58.077Z,3.15
2018-08-20T19:12:26.500Z,2.80
2018-08-20T19:14:54.932Z,3.33
2018-08-20T19:17:26.173Z,3.47
2018-08-20T19:19:54.909Z,3.58
2018-08-20T19:22:26.202Z,3.17
2018-08-20T19:24:54.720Z,3.30
2018-08-20T19:27:27.432Z,3.17
2018-08-20T19:29:55.877Z,3.42
2018-08-20T19:32:24.314Z,3.62
2018-08-20T19:34:52.715Z,2.90
2018-08-20T19:37:21.124Z,3.60
2018-08-20T19:39:49.529Z,3.83
2018-08-20T19:42:23.285Z,3.27
2018-08-20T19:44:51.747Z,3.60
2018-08-20T19:47:20.138Z,3.15
2018-08-20T19:49:48.546Z,3.85
2018-08-20T19:52:17.042Z,4.03
2018-08-20T19:54:47.093Z,3.47
2018-08-20T19:57:15.529Z,4.12
2018-08-20T19:59:43.921Z,3.62
2018-08-20T20:02:12.538Z,4.15
2018-08-20T20:04:40.943Z,4.05
2018-08-20T20:07:09.347Z,4.17
2018-08-20T20:09:38.128Z,4.28
2018-08-20T20:12:06.591Z,4.58
2018-08-20T20:14:44.263Z,4.17
2018-08-20T20:17:12.738Z,4.20
2018-08-20T20:19:41.126Z,4.25
2018-08-20T20:22:13.665Z,4.40
2018-08-20T20:24:42.208Z,5.40
2018-08-20T20:27:10.654Z,4.70
2018-08-20T20:29:39.157Z,4.80
2018-08-20T20:32:07.317Z,4.80
2018-08-20T20:34:35.733Z,5.15
2018-08-20T20:37:04.193Z,5.25
2018-08-20T20:39:32.621Z,5.50
2018-08-20T20:42:01.069Z,4.72
2018-08-20T20:44:29.878Z,4.50
2018-08-20T20:46:58.442Z,4.78
2018-08-20T20:49:26.986Z,4.30
2018-08-20T20:51:55.410Z,4.72
2018-08-20T20:54:23.845Z,5.10
2018-08-20T20:56:52.227Z,4.37
2018-08-20T20:59:20.649Z,4.62
2018-08-20T21:01:49.030Z,5.25
2018-08-20T21:04:17.470Z,5.10
2018-08-20T21:06:45.982Z,5.40
2018-08-20T21:09:14.430Z,4.80
2018-08-20T21:11:42.827Z,5.15
2018-08-20T21:14:11.303Z,6.22
2018-08-20T21:16:39.723Z,5.72
2018-08-20T21:19:08.208Z,5.78
2018-08-20T21:21:36.658Z,6.17
2018-08-20T21:24:07.330Z,6.35
2018-08-20T21:26:35.750Z,6.12
2018-08-20T21:29:04.194Z,6.08
2018-08-20T21:31:37.148Z,5.53
2018-08-20T21:34:05.616Z,5.55
2018-08-20T21:36:34.002Z,4.90
2018-08-20T21:39:02.485Z,5.75
2018-08-20T21:41:30.876Z,5.20
2018-08-20T21:43:59.337Z,5.12
2018-08-20T21:46:27.763Z,5.28
2018-08-20T21:48:55.873Z,5.15
2018-08-20T21:51:28.571Z,5.53
2018-08-20T21:53:57.273Z,6.05
2018-08-20T21:56:29.792Z,5.95
2018-08-20T21:58:58.253Z,5.50
2018-08-20T22:01:27.408Z,6.12
2018-08-20T22:03:55.906Z,5.53
2018-08-20T22:06:24.292Z,5.20
2018-08-20T22:08:52.698Z,5.53
2018-08-20T22:11:21.084Z,5.53
2018-08-20T22:13:49.521Z,4.60
2018-08-20T22:16:21.753Z,4.92
2018-08-20T22:18:58.373Z,5.05
2018-08-20T22:21:26.816Z,5.37
2018-08-20T22:23:58.290Z,5.37
2018-08-20T22:26:26.818Z,5.05
2018-08-20T22:28:55.288Z,5.03
2018-08-20T22:31:23.665Z,4.75
2018-08-20T22:33:59.166Z,4.65
2018-08-20T22:36:28.712Z,5.60
2018-08-20T22:38:58.317Z,5.00
2018-08-20T22:41:27.968Z,5.60
2018-08-20T22:43:56.390Z,5.20
2018-08-20T22:46:25.308Z,4.55
2018-08-20T22:48:56.653Z,4.87
2018-08-20T22:51:26.277Z,5.90
2018-08-20T22:53:55.941Z,5.40
2018-08-20T22:56:26.794Z,4.90
2018-08-20T22:58:57.599Z,4.65
2018-08-20T23:01:26.085Z,4.78
2018-08-20T23:03:54.510Z,5.22
2018-08-20T23:06:23.169Z,5.10
2018-08-20T23:08:51.601Z,5.60
2018-08-20T23:11:38.937Z,5.08
2018-08-20T23:14:09.280Z,4.90
2018-08-20T23:16:38.111Z,5.15
2018-08-20T23:19:06.731Z,4.55
2018-08-20T23:21:39.372Z,5.10
2018-08-20T23:24:07.921Z,4.67
2018-08-20T23:26:36.403Z,4.87
2018-08-20T23:29:04.893Z,5.12
2018-08-20T23:31:33.409Z,4.58
2018-08-20T23:34:01.789Z,5.03
2018-08-20T23:36:30.269Z,5.22
2018-08-20T23:38:58.648Z,4.70
2018-08-20T23:41:27.048Z,4.37
2018-08-20T23:43:59.370Z,4.87
2018-08-20T23:46:49.394Z,4.65
2018-08-20T23:49:17.808Z,4.72
2018-08-20T23:51:46.468Z,4.60
2018-08-20T23:54:14.930Z,4.62
2018-08-20T23:56:43.424Z,4.45
2018-08-20T23:59:11.873Z,5.08
